sensor_id;sensor_type;location;lat;lon;timestamp;pressure;altitude;pressure_sealevel;temperature;humidity
59272;BME280;45043;51.068;7.026;2022-10-28T00:00:32;100773.56;;;15.21;57.74
59272;BME280;45043;51.068;7.026;2022-10-28T00:03:39;100778.47;;;15.24;57.48
59272;BME280;45043;51.068;7.026;2022-10-28T00:06:40;100762.94;;;15.14;57.99
59272;BME280;45043;51.068;7.026;2022-10-28T00:09:41;100761.66;;;15.17;57.38
59272;BME280;45043;51.068;7.026;2022-10-28T00:12:41;100763.47;;;15.23;57.33
59272;BME280;45043;51.068;7.026;2022-10-28T00:15:41;100754.19;;;15.25;57.26
59272;BME280;45043;51.068;7.026;2022-10-28T00:18:42;100762.34;;;15.30;56.89
59272;BME280;45043;51.068;7.026;2022-10-28T00:21:44;100764.59;;;15.34;56.73
59272;BME280;45043;51.068;7.026;2022-10-28T00:24:45;100753.94;;;15.27;57.37
59272;BME280;45043;51.068;7.026;2022-10-28T00:27:45;100746.69;;;15.34;56.51
59272;BME280;45043;51.068;7.026;2022-10-28T00:30:45;100756.34;;;15.35;56.63
59272;BME280;45043;51.068;7.026;2022-10-28T00:33:46;100755.31;;;15.36;56.39
59272;BME280;45043;51.068;7.026;2022-10-28T00:36:47;100752.53;;;15.43;56.19
59272;BME280;45043;51.068;7.026;2022-10-28T00:39:47;100755.03;;;15.44;55.97
59272;BME280;45043;51.068;7.026;2022-10-28T00:42:48;100746.19;;;15.44;55.76
59272;BME280;45043;51.068;7.026;2022-10-28T00:45:48;100738.34;;;15.42;55.92
59272;BME280;45043;51.068;7.026;2022-10-28T00:48:53;100740.75;;;15.50;55.68
59272;BME280;45043;51.068;7.026;2022-10-28T00:51:59;100729.59;;;15.53;55.63
59272;BME280;45043;51.068;7.026;2022-10-28T00:55:01;100727.97;;;15.52;55.60
59272;BME280;45043;51.068;7.026;2022-10-28T00:58:02;100731.72;;;15.51;55.24
59272;BME280;45043;51.068;7.026;2022-10-28T01:01:05;100717.53;;;15.44;55.23
59272;BME280;45043;51.068;7.026;2022-10-28T01:04:06;100731.25;;;15.54;55.27
59272;BME280;45043;51.068;7.026;2022-10-28T01:07:07;100731.72;;;15.51;54.81
59272;BME280;45043;51.068;7.026;2022-10-28T01:10:08;100746.50;;;15.54;54.98
59272;BME280;45043;51.068;7.026;2022-10-28T01:13:25;100752.06;;;15.52;54.78
59272;BME280;45043;51.068;7.026;2022-10-28T01:16:39;100743.06;;;15.47;54.83
59272;BME280;45043;51.068;7.026;2022-10-28T01:20:09;100749.41;;;15.52;54.75
59272;BME280;45043;51.068;7.026;2022-10-28T01:33:16;100716.38;;;15.59;54.83
59272;BME280;45043;51.068;7.026;2022-10-28T01:39:47;100712.97;;;15.51;54.89
59272;BME280;45043;51.068;7.026;2022-10-28T01:43:10;100714.19;;;15.49;54.38
59272;BME280;45043;51.068;7.026;2022-10-28T01:46:24;100719.78;;;15.47;54.18
59272;BME280;45043;51.068;7.026;2022-10-28T01:49:32;100704.94;;;15.51;54.44
59272;BME280;45043;51.068;7.026;2022-10-28T01:52:39;100713.53;;;15.53;54.51
59272;BME280;45043;51.068;7.026;2022-10-28T01:55:43;100721.38;;;15.55;54.63
59272;BME280;45043;51.068;7.026;2022-10-28T01:58:46;100703.66;;;15.54;54.36
59272;BME280;45043;51.068;7.026;2022-10-28T02:01:47;100703.72;;;15.47;54.22
59272;BME280;45043;51.068;7.026;2022-10-28T02:04:48;100722.63;;;15.52;54.10
59272;BME280;45043;51.068;7.026;2022-10-28T02:07:49;100725.44;;;15.58;54.21
59272;BME280;45043;51.068;7.026;2022-10-28T02:21:01;100716.81;;;15.56;54.46
59272;BME280;45043;51.068;7.026;2022-10-28T02:24:15;100707.31;;;15.60;53.63
59272;BME280;45043;51.068;7.026;2022-10-28T02:33:39;100703.56;;;15.61;53.66
59272;BME280;45043;51.068;7.026;2022-10-28T02:36:44;100708.50;;;15.64;53.72
59272;BME280;45043;51.068;7.026;2022-10-28T02:39:49;100703.00;;;15.59;53.92
59272;BME280;45043;51.068;7.026;2022-10-28T02:42:54;100709.97;;;15.60;54.03
59272;BME280;45043;51.068;7.026;2022-10-28T02:45:58;100708.13;;;15.60;53.54
59272;BME280;45043;51.068;7.026;2022-10-28T02:49:05;100714.28;;;15.61;53.80
59272;BME280;45043;51.068;7.026;2022-10-28T02:52:07;100706.03;;;15.62;53.79
59272;BME280;45043;51.068;7.026;2022-10-28T02:55:09;100699.41;;;15.65;53.62
59272;BME280;45043;51.068;7.026;2022-10-28T02:58:10;100701.06;;;15.66;53.40
59272;BME280;45043;51.068;7.026;2022-10-28T03:01:10;100697.91;;;15.69;53.28
59272;BME280;45043;51.068;7.026;2022-10-28T03:04:11;100698.50;;;15.71;53.51
59272;BME280;45043;51.068;7.026;2022-10-28T03:07:11;100694.22;;;15.70;53.58
59272;BME280;45043;51.068;7.026;2022-10-28T03:10:12;100686.91;;;15.77;52.88
59272;BME280;45043;51.068;7.026;2022-10-28T03:13:12;100689.09;;;15.80;52.83
59272;BME280;45043;51.068;7.026;2022-10-28T03:16:13;100681.06;;;15.80;52.82
59272;BME280;45043;51.068;7.026;2022-10-28T03:19:14;100698.44;;;15.77;53.01
59272;BME280;45043;51.068;7.026;2022-10-28T03:22:14;100694.72;;;15.78;53.27
59272;BME280;45043;51.068;7.026;2022-10-28T03:25:15;100692.09;;;15.72;53.32
59272;BME280;45043;51.068;7.026;2022-10-28T03:28:16;100691.53;;;15.70;53.51
59272;BME280;45043;51.068;7.026;2022-10-28T03:31:16;100692.56;;;15.69;53.60
59272;BME280;45043;51.068;7.026;2022-10-28T03:34:16;100682.06;;;15.67;53.11
59272;BME280;45043;51.068;7.026;2022-10-28T03:37:17;100686.00;;;15.65;53.40
59272;BME280;45043;51.068;7.026;2022-10-28T03:40:18;100678.59;;;15.67;53.33
59272;BME280;45043;51.068;7.026;2022-10-28T03:43:18;100689.50;;;15.65;53.40
59272;BME280;45043;51.068;7.026;2022-10-28T03:46:19;100689.75;;;15.64;53.32
59272;BME280;45043;51.068;7.026;2022-10-28T03:49:19;100684.25;;;15.59;53.75
59272;BME280;45043;51.068;7.026;2022-10-28T03:52:20;100684.25;;;15.59;53.41
59272;BME280;45043;51.068;7.026;2022-10-28T03:55:20;100673.53;;;15.59;53.39
59272;BME280;45043;51.068;7.026;2022-10-28T03:58:23;100672.34;;;15.54;53.44
59272;BME280;45043;51.068;7.026;2022-10-28T04:01:24;100674.03;;;15.49;53.99
59272;BME280;45043;51.068;7.026;2022-10-28T04:04:25;100668.75;;;15.42;53.75
59272;BME280;45043;51.068;7.026;2022-10-28T04:07:27;100652.75;;;15.36;54.09
59272;BME280;45043;51.068;7.026;2022-10-28T04:10:27;100651.06;;;15.41;54.05
59272;BME280;45043;51.068;7.026;2022-10-28T04:13:27;100640.41;;;15.35;54.33
59272;BME280;45043;51.068;7.026;2022-10-28T04:16:28;100646.00;;;15.33;54.11
59272;BME280;45043;51.068;7.026;2022-10-28T04:19:28;100648.06;;;15.31;53.98
59272;BME280;45043;51.068;7.026;2022-10-28T04:22:29;100651.19;;;15.28;54.25
59272;BME280;45043;51.068;7.026;2022-10-28T04:25:29;100646.22;;;15.31;53.93
59272;BME280;45043;51.068;7.026;2022-10-28T04:28:30;100651.56;;;15.31;54.18
59272;BME280;45043;51.068;7.026;2022-10-28T04:31:30;100644.81;;;15.29;54.21
59272;BME280;45043;51.068;7.026;2022-10-28T04:34:31;100658.94;;;15.36;54.16
59272;BME280;45043;51.068;7.026;2022-10-28T04:37:31;100661.38;;;15.38;54.01
59272;BME280;45043;51.068;7.026;2022-10-28T04:40:32;100650.69;;;15.38;53.85
59272;BME280;45043;51.068;7.026;2022-10-28T04:43:32;100667.84;;;15.48;54.05
59272;BME280;45043;51.068;7.026;2022-10-28T04:46:33;100664.16;;;15.49;54.01
59272;BME280;45043;51.068;7.026;2022-10-28T04:49:33;100660.88;;;15.47;53.94
59272;BME280;45043;51.068;7.026;2022-10-28T04:52:34;100653.97;;;15.40;53.92
59272;BME280;45043;51.068;7.026;2022-10-28T04:55:34;100654.16;;;15.38;53.89
59272;BME280;45043;51.068;7.026;2022-10-28T04:58:35;100660.13;;;15.40;53.91
59272;BME280;45043;51.068;7.026;2022-10-28T05:01:35;100663.81;;;15.39;53.91
59272;BME280;45043;51.068;7.026;2022-10-28T05:04:36;100671.28;;;15.37;53.96
59272;BME280;45043;51.068;7.026;2022-10-28T05:07:37;100671.28;;;15.37;54.14
59272;BME280;45043;51.068;7.026;2022-10-28T05:10:37;100657.53;;;15.34;54.31
59272;BME280;45043;51.068;7.026;2022-10-28T05:13:37;100663.47;;;15.36;53.66
59272;BME280;45043;51.068;7.026;2022-10-28T05:16:38;100666.38;;;15.34;54.21
59272;BME280;45043;51.068;7.026;2022-10-28T05:19:38;100672.16;;;15.31;54.11
59272;BME280;45043;51.068;7.026;2022-10-28T05:22:48;100664.56;;;15.28;54.29
59272;BME280;45043;51.068;7.026;2022-10-28T05:25:50;100665.19;;;15.30;54.53
59272;BME280;45043;51.068;7.026;2022-10-28T05:28:50;100646.31;;;15.25;54.40
59272;BME280;45043;51.068;7.026;2022-10-28T05:31:51;100654.47;;;15.30;54.14
59272;BME280;45043;51.068;7.026;2022-10-28T05:34:51;100654.91;;;15.27;54.27
59272;BME280;45043;51.068;7.026;2022-10-28T05:37:52;100650.31;;;15.34;53.94
59272;BME280;45043;51.068;7.026;2022-10-28T05:40:52;100669.06;;;15.34;54.33
59272;BME280;45043;51.068;7.026;2022-10-28T05:43:52;100663.56;;;15.29;54.38
59272;BME280;45043;51.068;7.026;2022-10-28T05:46:53;100672.16;;;15.31;54.20
59272;BME280;45043;51.068;7.026;2022-10-28T05:49:54;100679.19;;;15.32;54.02
59272;BME280;45043;51.068;7.026;2022-10-28T05:52:56;100674.25;;;15.29;54.05
59272;BME280;45043;51.068;7.026;2022-10-28T05:55:56;100674.34;;;15.22;54.17
59272;BME280;45043;51.068;7.026;2022-10-28T05:58:57;100676.19;;;15.22;54.44
59272;BME280;45043;51.068;7.026;2022-10-28T06:01:57;100680.06;;;15.26;54.54
59272;BME280;45043;51.068;7.026;2022-10-28T06:04:59;100684.00;;;15.23;54.22
59272;BME280;45043;51.068;7.026;2022-10-28T06:07:59;100683.41;;;15.21;54.54
59272;BME280;45043;51.068;7.026;2022-10-28T06:11:00;100685.41;;;15.26;54.35
59272;BME280;45043;51.068;7.026;2022-10-28T06:14:01;100671.59;;;15.29;54.54
59272;BME280;45043;51.068;7.026;2022-10-28T06:17:01;100688.16;;;15.38;53.92
59272;BME280;45043;51.068;7.026;2022-10-28T06:20:02;100703.91;;;15.46;53.77
59272;BME280;45043;51.068;7.026;2022-10-28T06:23:03;100676.94;;;15.47;53.86
59272;BME280;45043;51.068;7.026;2022-10-28T06:26:07;100690.41;;;15.59;54.10
59272;BME280;45043;51.068;7.026;2022-10-28T06:29:09;100686.63;;;15.67;53.74
59272;BME280;45043;51.068;7.026;2022-10-28T06:32:10;100690.78;;;15.63;53.58
59272;BME280;45043;51.068;7.026;2022-10-28T06:35:10;100693.91;;;15.60;53.77
59272;BME280;45043;51.068;7.026;2022-10-28T06:38:11;100698.81;;;15.63;53.61
59272;BME280;45043;51.068;7.026;2022-10-28T06:41:11;100701.88;;;15.66;53.52
59272;BME280;45043;51.068;7.026;2022-10-28T06:44:12;100700.44;;;15.64;53.45
59272;BME280;45043;51.068;7.026;2022-10-28T06:47:13;100701.44;;;15.69;53.67
59272;BME280;45043;51.068;7.026;2022-10-28T06:50:14;100705.50;;;15.72;53.60
59272;BME280;45043;51.068;7.026;2022-10-28T06:53:14;100701.78;;;15.73;53.68
59272;BME280;45043;51.068;7.026;2022-10-28T06:56:15;100709.97;;;15.78;52.91
59272;BME280;45043;51.068;7.026;2022-10-28T06:59:16;100697.63;;;15.77;53.04
59272;BME280;45043;51.068;7.026;2022-10-28T07:02:16;100706.75;;;15.88;53.08
59272;BME280;45043;51.068;7.026;2022-10-28T07:05:17;100705.72;;;15.89;52.60
59272;BME280;45043;51.068;7.026;2022-10-28T07:08:18;100706.53;;;15.89;52.88
59272;BME280;45043;51.068;7.026;2022-10-28T07:11:19;100706.53;;;15.89;52.76
59272;BME280;45043;51.068;7.026;2022-10-28T07:14:19;100708.16;;;15.90;52.88
59272;BME280;45043;51.068;7.026;2022-10-28T07:17:20;100713.50;;;15.90;52.91
59272;BME280;45043;51.068;7.026;2022-10-28T07:20:21;100719.47;;;15.92;52.94
59272;BME280;45043;51.068;7.026;2022-10-28T07:23:21;100710.03;;;15.90;52.75
59272;BME280;45043;51.068;7.026;2022-10-28T07:26:22;100719.03;;;15.95;52.66
59272;BME280;45043;51.068;7.026;2022-10-28T07:29:23;100726.22;;;15.95;52.75
59272;BME280;45043;51.068;7.026;2022-10-28T07:32:24;100717.59;;;15.93;52.55
59272;BME280;45043;51.068;7.026;2022-10-28T07:35:24;100708.88;;;15.97;52.92
59272;BME280;45043;51.068;7.026;2022-10-28T07:38:24;100710.06;;;16.01;52.79
59272;BME280;45043;51.068;7.026;2022-10-28T07:41:25;100706.44;;;15.96;52.79
59272;BME280;45043;51.068;7.026;2022-10-28T07:44:26;100719.47;;;15.92;52.48
59272;BME280;45043;51.068;7.026;2022-10-28T07:47:27;100719.22;;;15.94;52.66
59272;BME280;45043;51.068;7.026;2022-10-28T07:50:28;100718.78;;;15.97;52.75
59272;BME280;45043;51.068;7.026;2022-10-28T07:53:28;100719.41;;;15.99;52.28
59272;BME280;45043;51.068;7.026;2022-10-28T07:56:29;100729.44;;;16.03;52.72
59272;BME280;45043;51.068;7.026;2022-10-28T07:59:29;100731.66;;;16.07;52.01
59272;BME280;45043;51.068;7.026;2022-10-28T08:02:30;100730.16;;;16.11;52.38
59272;BME280;45043;51.068;7.026;2022-10-28T08:05:31;100729.72;;;16.14;52.19
59272;BME280;45043;51.068;7.026;2022-10-28T08:08:31;100734.22;;;16.13;52.18
59272;BME280;45043;51.068;7.026;2022-10-28T08:11:32;100726.69;;;16.22;52.27
59272;BME280;45043;51.068;7.026;2022-10-28T08:14:33;100730.56;;;16.26;52.32
59272;BME280;45043;51.068;7.026;2022-10-28T08:17:33;100735.22;;;16.31;51.98
59272;BME280;45043;51.068;7.026;2022-10-28T08:20:34;100733.75;;;16.35;51.77
59272;BME280;45043;51.068;7.026;2022-10-28T08:23:35;100726.69;;;16.40;51.70
59272;BME280;45043;51.068;7.026;2022-10-28T08:26:36;100718.66;;;16.52;51.30
59272;BME280;45043;51.068;7.026;2022-10-28T08:29:36;100715.28;;;16.57;50.96
59272;BME280;45043;51.068;7.026;2022-10-28T08:32:37;100705.59;;;16.56;51.40
59272;BME280;45043;51.068;7.026;2022-10-28T08:35:37;100713.66;;;16.56;51.75
59272;BME280;45043;51.068;7.026;2022-10-28T08:38:38;100713.19;;;16.59;51.29
59272;BME280;45043;51.068;7.026;2022-10-28T08:45:15;100711.88;;;16.49;51.32
59272;BME280;45043;51.068;7.026;2022-10-28T08:51:44;100710.81;;;16.50;51.11
59272;BME280;45043;51.068;7.026;2022-10-28T08:58:22;100712.25;;;16.53;51.30
59272;BME280;45043;51.068;7.026;2022-10-28T09:02:22;100704.44;;;16.52;51.34
59272;BME280;45043;51.068;7.026;2022-10-28T09:05:24;100710.63;;;16.64;51.07
59272;BME280;45043;51.068;7.026;2022-10-28T09:08:27;100706.69;;;16.78;50.97
59272;BME280;45043;51.068;7.026;2022-10-28T09:11:52;100715.19;;;16.87;50.45
59272;BME280;45043;51.068;7.026;2022-10-28T09:21:26;100710.91;;;17.21;49.51
59272;BME280;45043;51.068;7.026;2022-10-28T09:37:36;100696.00;;;17.65;48.69
59272;BME280;45043;51.068;7.026;2022-10-28T09:40:40;100697.66;;;17.66;48.45
59272;BME280;45043;51.068;7.026;2022-10-28T09:43:55;100693.97;;;17.73;48.17
59272;BME280;45043;51.068;7.026;2022-10-28T09:46:59;100704.22;;;17.87;48.17
59272;BME280;45043;51.068;7.026;2022-10-28T09:50:04;100702.22;;;17.94;48.35
59272;BME280;45043;51.068;7.026;2022-10-28T09:53:15;100707.25;;;18.03;47.83
59272;BME280;45043;51.068;7.026;2022-10-28T09:56:19;100707.94;;;17.98;48.10
59272;BME280;45043;51.068;7.026;2022-10-28T09:59:19;100709.44;;;18.06;47.94
59272;BME280;45043;51.068;7.026;2022-10-28T10:02:27;100708.00;;;18.15;47.44
59272;BME280;45043;51.068;7.026;2022-10-28T10:05:30;100714.06;;;18.22;47.18
59272;BME280;45043;51.068;7.026;2022-10-28T10:08:32;100709.34;;;18.29;47.46
59272;BME280;45043;51.068;7.026;2022-10-28T10:11:39;100711.63;;;18.37;47.14
59272;BME280;45043;51.068;7.026;2022-10-28T10:14:50;100714.97;;;18.45;47.22
59272;BME280;45043;51.068;7.026;2022-10-28T10:17:54;100711.06;;;18.52;47.22
59272;BME280;45043;51.068;7.026;2022-10-28T10:20:57;100709.81;;;18.43;47.15
59272;BME280;45043;51.068;7.026;2022-10-28T10:23:58;100708.19;;;18.42;47.15
59272;BME280;45043;51.068;7.026;2022-10-28T10:30:01;100708.88;;;18.49;46.96
59272;BME280;45043;51.068;7.026;2022-10-28T10:33:01;100708.59;;;18.51;46.77
59272;BME280;45043;51.068;7.026;2022-10-28T10:36:12;100703.06;;;18.40;46.82
59272;BME280;45043;51.068;7.026;2022-10-28T10:39:20;100695.66;;;18.48;47.16
59272;BME280;45043;51.068;7.026;2022-10-28T10:42:22;100700.53;;;18.51;47.41
59272;BME280;45043;51.068;7.026;2022-10-28T10:45:26;100704.88;;;18.52;47.62
59272;BME280;45043;51.068;7.026;2022-10-28T10:48:28;100698.50;;;18.58;47.63
59272;BME280;45043;51.068;7.026;2022-10-28T10:51:29;100706.78;;;18.68;47.16
59272;BME280;45043;51.068;7.026;2022-10-28T10:54:31;100686.72;;;18.76;47.01
59272;BME280;45043;51.068;7.026;2022-10-28T10:57:32;100673.84;;;18.78;47.07
59272;BME280;45043;51.068;7.026;2022-10-28T11:00:37;100685.06;;;18.91;46.93
59272;BME280;45043;51.068;7.026;2022-10-28T11:06:56;100678.19;;;19.01;46.93
59272;BME280;45043;51.068;7.026;2022-10-28T11:09:57;100698.44;;;19.03;46.84
59272;BME280;45043;51.068;7.026;2022-10-28T11:13:23;100685.03;;;19.08;46.87
59272;BME280;45043;51.068;7.026;2022-10-28T11:16:24;100683.34;;;19.24;46.64
59272;BME280;45043;51.068;7.026;2022-10-28T11:22:38;100665.88;;;19.44;46.00
59272;BME280;45043;51.068;7.026;2022-10-28T11:25:44;100657.97;;;19.59;45.98
59272;BME280;45043;51.068;7.026;2022-10-28T11:38:36;100629.78;;;19.99;45.64
59272;BME280;45043;51.068;7.026;2022-10-28T11:45:43;100630.00;;;20.19;44.35
59272;BME280;45043;51.068;7.026;2022-10-28T12:03:23;100622.41;;;20.86;42.86
59272;BME280;45043;51.068;7.026;2022-10-28T12:06:52;100624.09;;;20.97;42.51
59272;BME280;45043;51.068;7.026;2022-10-28T12:16:46;100627.22;;;21.31;41.03
59272;BME280;45043;51.068;7.026;2022-10-28T12:20:01;100616.44;;;21.41;40.58
59272;BME280;45043;51.068;7.026;2022-10-28T12:23:12;100630.88;;;21.67;40.16
59272;BME280;45043;51.068;7.026;2022-10-28T12:26:17;100617.38;;;21.98;40.00
59272;BME280;45043;51.068;7.026;2022-10-28T12:29:28;100609.81;;;22.10;39.30
59272;BME280;45043;51.068;7.026;2022-10-28T12:32:34;100606.06;;;22.11;39.31
59272;BME280;45043;51.068;7.026;2022-10-28T12:35:38;100613.66;;;22.19;38.80
59272;BME280;45043;51.068;7.026;2022-10-28T12:38:44;100612.56;;;22.31;38.59
59272;BME280;45043;51.068;7.026;2022-10-28T12:42:13;100607.16;;;22.31;38.40
59272;BME280;45043;51.068;7.026;2022-10-28T12:45:17;100616.34;;;22.35;38.70
59272;BME280;45043;51.068;7.026;2022-10-28T12:48:32;100607.16;;;22.31;38.11
59272;BME280;45043;51.068;7.026;2022-10-28T12:51:39;100612.00;;;22.23;37.81
59272;BME280;45043;51.068;7.026;2022-10-28T12:54:58;100602.81;;;22.30;38.21
59272;BME280;45043;51.068;7.026;2022-10-28T12:58:14;100601.47;;;22.37;37.29
59272;BME280;45043;51.068;7.026;2022-10-28T13:01:18;100602.81;;;22.19;38.64
59272;BME280;45043;51.068;7.026;2022-10-28T13:04:20;100597.97;;;22.11;38.33
59272;BME280;45043;51.068;7.026;2022-10-28T13:07:43;100596.81;;;22.02;38.59
59272;BME280;45043;51.068;7.026;2022-10-28T13:20:42;100602.22;;;21.71;39.31
59272;BME280;45043;51.068;7.026;2022-10-28T13:27:12;100598.44;;;21.67;39.22
59272;BME280;45043;51.068;7.026;2022-10-28T13:30:16;100602.22;;;21.87;39.32
59272;BME280;45043;51.068;7.026;2022-10-28T13:33:22;100602.25;;;22.02;38.94
59272;BME280;45043;51.068;7.026;2022-10-28T13:36:31;100603.59;;;22.10;38.56
59272;BME280;45043;51.068;7.026;2022-10-28T13:42:46;100619.34;;;22.33;37.54
59272;BME280;45043;51.068;7.026;2022-10-28T13:45:54;100626.09;;;22.41;37.94
59272;BME280;45043;51.068;7.026;2022-10-28T13:52:27;100623.34;;;22.56;37.56
59272;BME280;45043;51.068;7.026;2022-10-28T13:58:37;100615.75;;;22.58;37.72
59272;BME280;45043;51.068;7.026;2022-10-28T14:04:53;100608.78;;;22.26;38.16
59272;BME280;45043;51.068;7.026;2022-10-28T14:07:57;100610.41;;;22.12;38.63
59272;BME280;45043;51.068;7.026;2022-10-28T14:11:13;100602.22;;;21.92;38.98
59272;BME280;45043;51.068;7.026;2022-10-28T14:14:22;100601.16;;;21.77;39.56
59272;BME280;45043;51.068;7.026;2022-10-28T14:17:26;100610.34;;;21.66;39.48
59272;BME280;45043;51.068;7.026;2022-10-28T14:20:32;100623.78;;;21.51;39.50
59272;BME280;45043;51.068;7.026;2022-10-28T14:24:08;100631.28;;;21.39;39.86
59272;BME280;45043;51.068;7.026;2022-10-28T14:30:17;100634.50;;;21.30;39.97
59272;BME280;45043;51.068;7.026;2022-10-28T14:33:19;100634.22;;;21.27;40.21
59272;BME280;45043;51.068;7.026;2022-10-28T14:47:06;100654.88;;;20.96;40.51
59272;BME280;45043;51.068;7.026;2022-10-28T14:50:22;100661.09;;;20.96;40.82
59272;BME280;45043;51.068;7.026;2022-10-28T14:53:33;100662.69;;;20.92;40.78
59272;BME280;45043;51.068;7.026;2022-10-28T14:56:35;100662.41;;;20.89;41.06
59272;BME280;45043;51.068;7.026;2022-10-28T14:59:39;100660.75;;;20.88;40.99
59272;BME280;45043;51.068;7.026;2022-10-28T15:02:41;100659.13;;;20.81;40.72
59272;BME280;45043;51.068;7.026;2022-10-28T15:05:41;100652.81;;;20.76;40.90
59272;BME280;45043;51.068;7.026;2022-10-28T15:08:42;100666.00;;;20.67;41.16
59272;BME280;45043;51.068;7.026;2022-10-28T15:11:45;100690.81;;;20.64;41.52
59272;BME280;45043;51.068;7.026;2022-10-28T15:14:51;100699.69;;;20.59;41.44
59272;BME280;45043;51.068;7.026;2022-10-28T15:17:52;100707.50;;;20.56;41.44
59272;BME280;45043;51.068;7.026;2022-10-28T15:21:08;100700.91;;;20.47;41.33
59272;BME280;45043;51.068;7.026;2022-10-28T15:24:12;100701.72;;;20.47;40.89
59272;BME280;45043;51.068;7.026;2022-10-28T15:27:13;100716.00;;;20.43;41.47
59272;BME280;45043;51.068;7.026;2022-10-28T15:30:22;100709.47;;;20.33;41.87
59272;BME280;45043;51.068;7.026;2022-10-28T15:33:37;100704.53;;;20.25;41.96
59272;BME280;45043;51.068;7.026;2022-10-28T15:36:38;100716.34;;;20.19;41.99
59272;BME280;45043;51.068;7.026;2022-10-28T15:39:38;100725.50;;;20.18;42.25
59272;BME280;45043;51.068;7.026;2022-10-28T15:42:41;100718.72;;;20.16;42.40
59272;BME280;45043;51.068;7.026;2022-10-28T15:45:44;100730.81;;;20.13;42.49
59272;BME280;45043;51.068;7.026;2022-10-28T15:48:50;100727.25;;;20.07;42.76
59272;BME280;45043;51.068;7.026;2022-10-28T15:55:33;100744.38;;;19.96;43.01
59272;BME280;45043;51.068;7.026;2022-10-28T15:58:37;100753.59;;;20.00;42.70
59272;BME280;45043;51.068;7.026;2022-10-28T16:01:38;100755.66;;;19.93;42.17
59272;BME280;45043;51.068;7.026;2022-10-28T16:04:41;100757.16;;;19.84;42.82
59272;BME280;45043;51.068;7.026;2022-10-28T16:07:44;100759.00;;;19.78;42.47
59272;BME280;45043;51.068;7.026;2022-10-28T16:10:48;100758.38;;;19.71;42.77
59272;BME280;45043;51.068;7.026;2022-10-28T16:13:49;100763.38;;;19.62;43.39
59272;BME280;45043;51.068;7.026;2022-10-28T16:16:50;100769.81;;;19.61;43.27
59272;BME280;45043;51.068;7.026;2022-10-28T16:19:55;100776.78;;;19.57;43.27
59272;BME280;45043;51.068;7.026;2022-10-28T16:22:57;100779.16;;;19.54;43.44
59272;BME280;45043;51.068;7.026;2022-10-28T16:25:58;100786.09;;;19.50;43.48
59272;BME280;45043;51.068;7.026;2022-10-28T16:28:58;100784.66;;;19.42;43.72
59272;BME280;45043;51.068;7.026;2022-10-28T16:32:01;100785.38;;;19.37;43.72
59272;BME280;45043;51.068;7.026;2022-10-28T16:35:03;100779.91;;;19.32;44.54
59272;BME280;45043;51.068;7.026;2022-10-28T16:38:09;100771.75;;;19.27;44.80
59272;BME280;45043;51.068;7.026;2022-10-28T16:41:15;100777.41;;;19.26;45.25
59272;BME280;45043;51.068;7.026;2022-10-28T16:44:17;100786.72;;;19.18;45.42
59272;BME280;45043;51.068;7.026;2022-10-28T16:47:19;100778.53;;;19.13;46.36
59272;BME280;45043;51.068;7.026;2022-10-28T16:50:20;100787.03;;;19.05;46.37
59272;BME280;45043;51.068;7.026;2022-10-28T16:53:21;100796.66;;;19.01;46.67
59272;BME280;45043;51.068;7.026;2022-10-28T16:56:21;100798.22;;;18.97;47.27
59272;BME280;45043;51.068;7.026;2022-10-28T16:59:22;100804.03;;;18.88;46.94
59272;BME280;45043;51.068;7.026;2022-10-28T17:02:32;100797.97;;;18.81;47.24
59272;BME280;45043;51.068;7.026;2022-10-28T17:05:34;100798.13;;;18.75;47.23
59272;BME280;45043;51.068;7.026;2022-10-28T17:08:35;100797.19;;;18.69;47.32
59272;BME280;45043;51.068;7.026;2022-10-28T17:11:35;100785.75;;;18.62;48.27
59272;BME280;45043;51.068;7.026;2022-10-28T17:14:36;100772.13;;;18.52;48.41
59272;BME280;45043;51.068;7.026;2022-10-28T17:17:36;100792.00;;;18.51;48.63
59272;BME280;45043;51.068;7.026;2022-10-28T17:20:37;100793.81;;;18.45;48.72
59272;BME280;45043;51.068;7.026;2022-10-28T17:23:38;100803.06;;;18.37;48.71
59272;BME280;45043;51.068;7.026;2022-10-28T17:26:38;100807.78;;;18.30;49.05
59272;BME280;45043;51.068;7.026;2022-10-28T17:29:39;100808.72;;;18.24;48.75
59272;BME280;45043;51.068;7.026;2022-10-28T17:32:39;100807.50;;;18.15;49.04
59272;BME280;45043;51.068;7.026;2022-10-28T17:35:40;100817.56;;;18.08;49.39
59272;BME280;45043;51.068;7.026;2022-10-28T17:38:40;100806.38;;;17.99;49.43
59272;BME280;45043;51.068;7.026;2022-10-28T17:41:41;100815.00;;;18.01;49.44
59272;BME280;45043;51.068;7.026;2022-10-28T17:44:41;100816.19;;;17.93;49.47
59272;BME280;45043;51.068;7.026;2022-10-28T17:47:42;100825.06;;;17.82;49.90
59272;BME280;45043;51.068;7.026;2022-10-28T17:50:42;100813.16;;;17.78;49.83
59272;BME280;45043;51.068;7.026;2022-10-28T17:53:44;100803.94;;;17.74;50.24
59272;BME280;45043;51.068;7.026;2022-10-28T17:56:45;100803.34;;;17.72;49.83
59272;BME280;45043;51.068;7.026;2022-10-28T17:59:46;100797.41;;;17.70;49.91
59272;BME280;45043;51.068;7.026;2022-10-28T18:02:46;100809.88;;;17.64;50.32
59272;BME280;45043;51.068;7.026;2022-10-28T18:05:47;100811.31;;;17.55;50.68
59272;BME280;45043;51.068;7.026;2022-10-28T18:08:48;100815.28;;;17.53;50.25
59272;BME280;45043;51.068;7.026;2022-10-28T18:11:49;100816.81;;;17.49;50.70
59272;BME280;45043;51.068;7.026;2022-10-28T18:14:50;100830.94;;;17.44;50.31
59272;BME280;45043;51.068;7.026;2022-10-28T18:17:50;100841.31;;;17.40;50.72
59272;BME280;45043;51.068;7.026;2022-10-28T18:20:52;100849.38;;;17.40;50.41
59272;BME280;45043;51.068;7.026;2022-10-28T18:23:53;100854.63;;;17.35;50.55
59272;BME280;45043;51.068;7.026;2022-10-28T18:27:02;100858.47;;;17.28;50.62